sensor_id;sensor_type;location;lat;lon;timestamp;temperature;humidity
64987;DHT22;51532;52.108;9.360;2023-02-04T00:00:19;5.40;81.40
64987;DHT22;51532;52.108;9.360;2023-02-04T00:02:46;5.30;81.70
64987;DHT22;51532;52.108;9.360;2023-02-04T00:05:13;5.30;81.60
64987;DHT22;51532;52.108;9.360;2023-02-04T00:07:42;5.30;81.50
64987;DHT22;51532;52.108;9.360;2023-02-04T00:10:09;5.30;81.70
64987;DHT22;51532;52.108;9.360;2023-02-04T00:12:36;5.30;81.70
64987;DHT22;51532;52.108;9.360;2023-02-04T00:15:03;5.40;81.50
64987;DHT22;51532;52.108;9.360;2023-02-04T00:17:30;5.50;81.50
64987;DHT22;51532;52.108;9.360;2023-02-04T00:19:57;5.50;81.60
64987;DHT22;51532;52.108;9.360;2023-02-04T00:22:24;5.50;82.10
64987;DHT22;51532;52.108;9.360;2023-02-04T00:24:53;5.40;82.40
64987;DHT22;51532;52.108;9.360;2023-02-04T00:27:20;5.50;82.50
64987;DHT22;51532;52.108;9.360;2023-02-04T00:29:47;5.40;82.90
64987;DHT22;51532;52.108;9.360;2023-02-04T00:32:14;5.40;83.00
64987;DHT22;51532;52.108;9.360;2023-02-04T00:34:41;5.30;83.90
64987;DHT22;51532;52.108;9.360;2023-02-04T00:37:07;5.30;84.00
64987;DHT22;51532;52.108;9.360;2023-02-04T00:39:34;5.30;84.60
64987;DHT22;51532;52.108;9.360;2023-02-04T00:42:01;5.30;85.40
64987;DHT22;51532;52.108;9.360;2023-02-04T00:44:28;5.00;85.00
64987;DHT22;51532;52.108;9.360;2023-02-04T00:46:55;5.00;85.40
64987;DHT22;51532;52.108;9.360;2023-02-04T00:49:23;4.80;86.90
64987;DHT22;51532;52.108;9.360;2023-02-04T00:51:49;5.00;86.20
64987;DHT22;51532;52.108;9.360;2023-02-04T00:54:16;5.00;85.40
64987;DHT22;51532;52.108;9.360;2023-02-04T00:56:45;5.00;84.30
64987;DHT22;51532;52.108;9.360;2023-02-04T00:59:11;5.00;84.00
64987;DHT22;51532;52.108;9.360;2023-02-04T01:01:39;5.00;84.30
64987;DHT22;51532;52.108;9.360;2023-02-04T01:04:06;5.00;83.90
64987;DHT22;51532;52.108;9.360;2023-02-04T01:06:33;5.00;82.50
64987;DHT22;51532;52.108;9.360;2023-02-04T01:09:01;5.00;82.60
64987;DHT22;51532;52.108;9.360;2023-02-04T01:11:29;4.90;82.60
64987;DHT22;51532;52.108;9.360;2023-02-04T01:13:56;4.80;82.70
64987;DHT22;51532;52.108;9.360;2023-02-04T01:16:23;4.80;82.60
64987;DHT22;51532;52.108;9.360;2023-02-04T01:18:50;4.90;81.80
64987;DHT22;51532;52.108;9.360;2023-02-04T01:21:17;4.90;81.60
64987;DHT22;51532;52.108;9.360;2023-02-04T01:23:43;4.90;80.90
64987;DHT22;51532;52.108;9.360;2023-02-04T01:26:10;4.90;81.10
64987;DHT22;51532;52.108;9.360;2023-02-04T01:28:37;4.90;80.70
64987;DHT22;51532;52.108;9.360;2023-02-04T01:31:04;4.90;80.20
64987;DHT22;51532;52.108;9.360;2023-02-04T01:33:31;4.80;80.10
64987;DHT22;51532;52.108;9.360;2023-02-04T01:35:58;4.70;80.50
64987;DHT22;51532;52.108;9.360;2023-02-04T01:38:25;4.70;80.60
64987;DHT22;51532;52.108;9.360;2023-02-04T01:40:52;4.70;80.40
64987;DHT22;51532;52.108;9.360;2023-02-04T01:43:21;4.60;80.70
64987;DHT22;51532;52.108;9.360;2023-02-04T01:45:49;4.70;80.50
64987;DHT22;51532;52.108;9.360;2023-02-04T01:48:18;4.60;80.80
64987;DHT22;51532;52.108;9.360;2023-02-04T01:50:51;4.60;80.60
64987;DHT22;51532;52.108;9.360;2023-02-04T01:53:21;4.60;80.60
64987;DHT22;51532;52.108;9.360;2023-02-04T01:55:49;4.50;81.00
64987;DHT22;51532;52.108;9.360;2023-02-04T01:58:17;4.50;81.10
64987;DHT22;51532;52.108;9.360;2023-02-04T02:00:44;4.50;81.10
64987;DHT22;51532;52.108;9.360;2023-02-04T02:03:11;4.40;80.80
64987;DHT22;51532;52.108;9.360;2023-02-04T02:05:42;4.40;81.00
64987;DHT22;51532;52.108;9.360;2023-02-04T02:08:10;4.40;80.70
64987;DHT22;51532;52.108;9.360;2023-02-04T02:10:41;4.40;80.70
64987;DHT22;51532;52.108;9.360;2023-02-04T02:13:12;4.40;81.10
64987;DHT22;51532;52.108;9.360;2023-02-04T02:15:40;4.40;80.70
64987;DHT22;51532;52.108;9.360;2023-02-04T02:18:08;4.40;81.00
64987;DHT22;51532;52.108;9.360;2023-02-04T02:20:35;4.50;80.70
64987;DHT22;51532;52.108;9.360;2023-02-04T02:23:41;4.50;80.10
64987;DHT22;51532;52.108;9.360;2023-02-04T02:26:10;4.50;79.90
64987;DHT22;51532;52.108;9.360;2023-02-04T02:28:37;4.50;79.70
64987;DHT22;51532;52.108;9.360;2023-02-04T02:31:04;4.40;80.20
64987;DHT22;51532;52.108;9.360;2023-02-04T02:33:31;4.40;81.00
64987;DHT22;51532;52.108;9.360;2023-02-04T02:35:58;4.40;80.50
64987;DHT22;51532;52.108;9.360;2023-02-04T02:38:25;4.30;81.30
64987;DHT22;51532;52.108;9.360;2023-02-04T02:40:52;4.10;81.50
64987;DHT22;51532;52.108;9.360;2023-02-04T02:43:22;4.10;81.90
64987;DHT22;51532;52.108;9.360;2023-02-04T02:45:50;4.20;80.60
64987;DHT22;51532;52.108;9.360;2023-02-04T02:48:17;4.30;80.00
64987;DHT22;51532;52.108;9.360;2023-02-04T02:50:46;4.30;79.80
64987;DHT22;51532;52.108;9.360;2023-02-04T02:53:15;4.40;79.30
64987;DHT22;51532;52.108;9.360;2023-02-04T02:55:45;4.30;80.20
64987;DHT22;51532;52.108;9.360;2023-02-04T02:58:25;4.30;79.60
64987;DHT22;51532;52.108;9.360;2023-02-04T03:00:55;4.30;79.10
64987;DHT22;51532;52.108;9.360;2023-02-04T03:03:32;4.30;80.10
64987;DHT22;51532;52.108;9.360;2023-02-04T03:06:08;4.30;80.00
64987;DHT22;51532;52.108;9.360;2023-02-04T03:08:36;4.30;80.50
64987;DHT22;51532;52.108;9.360;2023-02-04T03:11:03;4.20;80.50
64987;DHT22;51532;52.108;9.360;2023-02-04T03:13:31;4.30;80.80
64987;DHT22;51532;52.108;9.360;2023-02-04T03:15:59;4.20;80.70
64987;DHT22;51532;52.108;9.360;2023-02-04T03:18:27;4.20;81.30
64987;DHT22;51532;52.108;9.360;2023-02-04T03:20:55;4.20;81.20
64987;DHT22;51532;52.108;9.360;2023-02-04T03:23:22;4.40;80.80
64987;DHT22;51532;52.108;9.360;2023-02-04T03:25:49;4.40;80.40
64987;DHT22;51532;52.108;9.360;2023-02-04T03:28:16;4.30;81.20
64987;DHT22;51532;52.108;9.360;2023-02-04T03:30:43;4.20;81.40
64987;DHT22;51532;52.108;9.360;2023-02-04T03:33:19;4.20;81.60
64987;DHT22;51532;52.108;9.360;2023-02-04T03:35:46;4.20;81.80
64987;DHT22;51532;52.108;9.360;2023-02-04T03:38:13;4.20;80.90
64987;DHT22;51532;52.108;9.360;2023-02-04T03:40:39;4.20;80.90
64987;DHT22;51532;52.108;9.360;2023-02-04T03:43:06;4.20;80.80
64987;DHT22;51532;52.108;9.360;2023-02-04T03:45:33;4.10;81.20
64987;DHT22;51532;52.108;9.360;2023-02-04T03:48:11;4.00;80.70
64987;DHT22;51532;52.108;9.360;2023-02-04T03:50:37;3.90;81.60
64987;DHT22;51532;52.108;9.360;2023-02-04T03:53:04;3.70;81.80
64987;DHT22;51532;52.108;9.360;2023-02-04T03:55:31;3.80;81.70
64987;DHT22;51532;52.108;9.360;2023-02-04T03:57:58;3.90;81.50
64987;DHT22;51532;52.108;9.360;2023-02-04T04:00:25;4.00;80.40
64987;DHT22;51532;52.108;9.360;2023-02-04T04:02:52;3.90;80.90
64987;DHT22;51532;52.108;9.360;2023-02-04T04:05:19;3.90;80.70
64987;DHT22;51532;52.108;9.360;2023-02-04T04:07:46;3.80;81.30
64987;DHT22;51532;52.108;9.360;2023-02-04T04:10:13;3.80;81.00
64987;DHT22;51532;52.108;9.360;2023-02-04T04:12:39;3.80;81.40
64987;DHT22;51532;52.108;9.360;2023-02-04T04:15:06;3.80;81.10
64987;DHT22;51532;52.108;9.360;2023-02-04T04:17:33;3.80;80.60
64987;DHT22;51532;52.108;9.360;2023-02-04T04:20:00;3.70;80.00
64987;DHT22;51532;52.108;9.360;2023-02-04T04:22:27;3.70;80.40
64987;DHT22;51532;52.108;9.360;2023-02-04T04:24:54;3.80;80.50
64987;DHT22;51532;52.108;9.360;2023-02-04T04:27:21;3.70;80.90
64987;DHT22;51532;52.108;9.360;2023-02-04T04:29:48;3.60;80.40
64987;DHT22;51532;52.108;9.360;2023-02-04T04:32:14;3.60;81.40
64987;DHT22;51532;52.108;9.360;2023-02-04T04:34:41;3.60;81.40
64987;DHT22;51532;52.108;9.360;2023-02-04T04:37:08;3.70;81.90
64987;DHT22;51532;52.108;9.360;2023-02-04T04:39:35;3.60;80.70
64987;DHT22;51532;52.108;9.360;2023-02-04T04:42:01;3.70;81.50
64987;DHT22;51532;52.108;9.360;2023-02-04T04:44:28;3.70;81.10
64987;DHT22;51532;52.108;9.360;2023-02-04T04:46:55;3.60;81.10
64987;DHT22;51532;52.108;9.360;2023-02-04T04:49:23;3.60;81.90
64987;DHT22;51532;52.108;9.360;2023-02-04T04:51:50;3.60;80.90
64987;DHT22;51532;52.108;9.360;2023-02-04T04:54:17;3.60;80.70
64987;DHT22;51532;52.108;9.360;2023-02-04T04:56:43;3.60;80.70
64987;DHT22;51532;52.108;9.360;2023-02-04T04:59:10;3.70;81.20
64987;DHT22;51532;52.108;9.360;2023-02-04T05:01:37;3.70;80.50
64987;DHT22;51532;52.108;9.360;2023-02-04T05:04:04;3.70;81.00
64987;DHT22;51532;52.108;9.360;2023-02-04T05:06:31;3.70;81.30
64987;DHT22;51532;52.108;9.360;2023-02-04T05:08:58;3.80;81.70
64987;DHT22;51532;52.108;9.360;2023-02-04T05:11:25;3.70;81.60
64987;DHT22;51532;52.108;9.360;2023-02-04T05:13:52;3.70;81.50
64987;DHT22;51532;52.108;9.360;2023-02-04T05:16:18;3.70;80.70
64987;DHT22;51532;52.108;9.360;2023-02-04T05:18:45;3.60;78.90
64987;DHT22;51532;52.108;9.360;2023-02-04T05:21:12;3.50;78.40
64987;DHT22;51532;52.108;9.360;2023-02-04T05:23:39;3.50;77.50
64987;DHT22;51532;52.108;9.360;2023-02-04T05:26:05;3.50;78.00
64987;DHT22;51532;52.108;9.360;2023-02-04T05:28:32;3.40;77.50
64987;DHT22;51532;52.108;9.360;2023-02-04T05:30:59;3.40;78.50
64987;DHT22;51532;52.108;9.360;2023-02-04T05:33:26;3.40;77.80
64987;DHT22;51532;52.108;9.360;2023-02-04T05:35:52;3.50;78.60
64987;DHT22;51532;52.108;9.360;2023-02-04T05:38:19;3.50;77.60
64987;DHT22;51532;52.108;9.360;2023-02-04T05:40:46;3.50;77.80
64987;DHT22;51532;52.108;9.360;2023-02-04T05:43:13;3.40;77.80
64987;DHT22;51532;52.108;9.360;2023-02-04T05:45:39;3.30;77.70
64987;DHT22;51532;52.108;9.360;2023-02-04T05:48:06;3.30;77.90
64987;DHT22;51532;52.108;9.360;2023-02-04T05:50:33;3.30;77.10
64987;DHT22;51532;52.108;9.360;2023-02-04T05:53:09;3.20;77.80
64987;DHT22;51532;52.108;9.360;2023-02-04T05:55:36;3.10;78.80
64987;DHT22;51532;52.108;9.360;2023-02-04T05:58:02;3.10;78.70
64987;DHT22;51532;52.108;9.360;2023-02-04T06:00:29;3.10;78.40
64987;DHT22;51532;52.108;9.360;2023-02-04T06:02:56;3.10;78.50
64987;DHT22;51532;52.108;9.360;2023-02-04T06:05:23;3.00;78.50
64987;DHT22;51532;52.108;9.360;2023-02-04T06:07:50;2.90;78.70
64987;DHT22;51532;52.108;9.360;2023-02-04T06:10:17;2.90;79.20
64987;DHT22;51532;52.108;9.360;2023-02-04T06:12:43;2.90;79.90
64987;DHT22;51532;52.108;9.360;2023-02-04T06:15:10;3.00;79.70
64987;DHT22;51532;52.108;9.360;2023-02-04T06:17:38;2.90;79.70
64987;DHT22;51532;52.108;9.360;2023-02-04T06:20:06;2.90;79.60
64987;DHT22;51532;52.108;9.360;2023-02-04T06:22:33;2.90;80.20
64987;DHT22;51532;52.108;9.360;2023-02-04T06:24:59;2.80;80.40
64987;DHT22;51532;52.108;9.360;2023-02-04T06:27:26;2.80;78.60
64987;DHT22;51532;52.108;9.360;2023-02-04T06:29:53;2.70;79.60
64987;DHT22;51532;52.108;9.360;2023-02-04T06:32:21;2.60;79.70
64987;DHT22;51532;52.108;9.360;2023-02-04T06:34:48;2.50;79.90
64987;DHT22;51532;52.108;9.360;2023-02-04T06:37:15;2.50;79.80
64987;DHT22;51532;52.108;9.360;2023-02-04T06:39:42;2.50;79.60
64987;DHT22;51532;52.108;9.360;2023-02-04T06:42:09;2.40;80.30
64987;DHT22;51532;52.108;9.360;2023-02-04T06:44:36;2.40;81.30
64987;DHT22;51532;52.108;9.360;2023-02-04T06:47:03;2.40;81.60
64987;DHT22;51532;52.108;9.360;2023-02-04T06:49:30;2.40;80.70
64987;DHT22;51532;52.108;9.360;2023-02-04T06:51:56;2.40;81.30
64987;DHT22;51532;52.108;9.360;2023-02-04T06:54:23;2.30;80.20
64987;DHT22;51532;52.108;9.360;2023-02-04T06:56:50;2.30;80.00
64987;DHT22;51532;52.108;9.360;2023-02-04T06:59:17;2.30;80.70
64987;DHT22;51532;52.108;9.360;2023-02-04T07:01:44;2.30;81.60
64987;DHT22;51532;52.108;9.360;2023-02-04T07:04:10;2.30;82.20
64987;DHT22;51532;52.108;9.360;2023-02-04T07:06:37;2.30;81.80
64987;DHT22;51532;52.108;9.360;2023-02-04T07:09:04;2.30;81.20
64987;DHT22;51532;52.108;9.360;2023-02-04T07:11:31;2.30;81.80
64987;DHT22;51532;52.108;9.360;2023-02-04T07:13:57;2.30;81.70
64987;DHT22;51532;52.108;9.360;2023-02-04T07:16:25;2.30;81.50
64987;DHT22;51532;52.108;9.360;2023-02-04T07:18:52;2.30;81.80
64987;DHT22;51532;52.108;9.360;2023-02-04T07:21:19;2.30;81.60
64987;DHT22;51532;52.108;9.360;2023-02-04T07:23:45;2.30;81.60
64987;DHT22;51532;52.108;9.360;2023-02-04T07:26:12;2.20;82.20
64987;DHT22;51532;52.108;9.360;2023-02-04T07:28:39;2.20;81.90
64987;DHT22;51532;52.108;9.360;2023-02-04T07:31:06;2.20;81.50
64987;DHT22;51532;52.108;9.360;2023-02-04T07:33:33;2.20;81.60
64987;DHT22;51532;52.108;9.360;2023-02-04T07:36:00;2.20;82.00
64987;DHT22;51532;52.108;9.360;2023-02-04T07:38:27;2.20;81.90
64987;DHT22;51532;52.108;9.360;2023-02-04T07:40:54;2.30;81.60
64987;DHT22;51532;52.108;9.360;2023-02-04T07:43:21;2.30;81.10
64987;DHT22;51532;52.108;9.360;2023-02-04T07:45:48;2.30;80.70
64987;DHT22;51532;52.108;9.360;2023-02-04T07:48:15;2.20;80.70
64987;DHT22;51532;52.108;9.360;2023-02-04T07:50:41;2.20;81.10
64987;DHT22;51532;52.108;9.360;2023-02-04T07:53:08;2.20;81.00
64987;DHT22;51532;52.108;9.360;2023-02-04T07:55:35;2.20;80.40
64987;DHT22;51532;52.108;9.360;2023-02-04T07:58:02;2.30;80.70
64987;DHT22;51532;52.108;9.360;2023-02-04T08:00:30;2.20;81.40
64987;DHT22;51532;52.108;9.360;2023-02-04T08:02:57;2.20;81.10
64987;DHT22;51532;52.108;9.360;2023-02-04T08:05:24;2.20;80.80
64987;DHT22;51532;52.108;9.360;2023-02-04T08:07:50;2.20;80.70
64987;DHT22;51532;52.108;9.360;2023-02-04T08:10:17;2.30;80.90
64987;DHT22;51532;52.108;9.360;2023-02-04T08:12:44;2.30;81.50
64987;DHT22;51532;52.108;9.360;2023-02-04T08:15:11;2.20;82.10
64987;DHT22;51532;52.108;9.360;2023-02-04T08:17:37;2.20;81.60
64987;DHT22;51532;52.108;9.360;2023-02-04T08:20:04;2.30;81.50
64987;DHT22;51532;52.108;9.360;2023-02-04T08:22:31;2.30;81.10
64987;DHT22;51532;52.108;9.360;2023-02-04T08:24:58;2.30;80.80
64987;DHT22;51532;52.108;9.360;2023-02-04T08:27:24;2.30;81.20
64987;DHT22;51532;52.108;9.360;2023-02-04T08:29:51;2.30;80.70
64987;DHT22;51532;52.108;9.360;2023-02-04T08:32:18;2.30;81.00
64987;DHT22;51532;52.108;9.360;2023-02-04T08:34:45;2.30;81.90
64987;DHT22;51532;52.108;9.360;2023-02-04T08:37:14;2.40;81.60
64987;DHT22;51532;52.108;9.360;2023-02-04T08:39:41;2.40;80.80
64987;DHT22;51532;52.108;9.360;2023-02-04T08:42:12;2.40;81.10
64987;DHT22;51532;52.108;9.360;2023-02-04T08:44:39;2.40;80.50
64987;DHT22;51532;52.108;9.360;2023-02-04T08:47:05;2.40;80.50
64987;DHT22;51532;52.108;9.360;2023-02-04T08:49:32;2.50;80.00
64987;DHT22;51532;52.108;9.360;2023-02-04T08:51:59;2.50;80.20
64987;DHT22;51532;52.108;9.360;2023-02-04T08:54:28;2.40;79.60
64987;DHT22;51532;52.108;9.360;2023-02-04T08:56:55;2.50;79.60
64987;DHT22;51532;52.108;9.360;2023-02-04T08:59:21;2.50;80.90
64987;DHT22;51532;52.108;9.360;2023-02-04T09:01:49;2.50;80.40
64987;DHT22;51532;52.108;9.360;2023-02-04T09:04:18;2.50;79.80
64987;DHT22;51532;52.108;9.360;2023-02-04T09:06:45;2.50;79.20
64987;DHT22;51532;52.108;9.360;2023-02-04T09:09:13;2.50;79.30
64987;DHT22;51532;52.108;9.360;2023-02-04T09:11:40;2.50;79.90
64987;DHT22;51532;52.108;9.360;2023-02-04T09:14:07;2.60;79.30
64987;DHT22;51532;52.108;9.360;2023-02-04T09:16:35;2.70;79.30
64987;DHT22;51532;52.108;9.360;2023-02-04T09:19:02;2.70;79.40
64987;DHT22;51532;52.108;9.360;2023-02-04T09:21:29;2.70;78.60
64987;DHT22;51532;52.108;9.360;2023-02-04T09:23:56;2.70;78.60
64987;DHT22;51532;52.108;9.360;2023-02-04T09:26:23;2.70;78.20
64987;DHT22;51532;52.108;9.360;2023-02-04T09:28:50;2.80;78.40
64987;DHT22;51532;52.108;9.360;2023-02-04T09:31:17;2.90;78.70
64987;DHT22;51532;52.108;9.360;2023-02-04T09:33:44;2.90;78.60
64987;DHT22;51532;52.108;9.360;2023-02-04T09:36:11;3.10;78.20
64987;DHT22;51532;52.108;9.360;2023-02-04T09:38:38;3.10;76.90
64987;DHT22;51532;52.108;9.360;2023-02-04T09:41:06;3.30;77.60
64987;DHT22;51532;52.108;9.360;2023-02-04T09:43:37;3.30;77.80
64987;DHT22;51532;52.108;9.360;2023-02-04T09:46:09;3.50;77.10
64987;DHT22;51532;52.108;9.360;2023-02-04T09:48:41;3.50;76.60
64987;DHT22;51532;52.108;9.360;2023-02-04T09:51:11;3.60;76.70
64987;DHT22;51532;52.108;9.360;2023-02-04T09:53:39;3.60;75.00
64987;DHT22;51532;52.108;9.360;2023-02-04T09:56:08;3.70;76.50
64987;DHT22;51532;52.108;9.360;2023-02-04T09:58:36;3.80;74.90
64987;DHT22;51532;52.108;9.360;2023-02-04T10:01:19;3.90;75.50
64987;DHT22;51532;52.108;9.360;2023-02-04T10:03:47;4.00;73.00
64987;DHT22;51532;52.108;9.360;2023-02-04T10:06:19;3.90;73.60
64987;DHT22;51532;52.108;9.360;2023-02-04T10:08:47;4.00;74.30
64987;DHT22;51532;52.108;9.360;2023-02-04T10:11:16;4.20;73.40
64987;DHT22;51532;52.108;9.360;2023-02-04T10:13:48;4.30;73.60
64987;DHT22;51532;52.108;9.360;2023-02-04T10:16:22;4.20;72.50
64987;DHT22;51532;52.108;9.360;2023-02-04T10:19:00;4.10;71.60
64987;DHT22;51532;52.108;9.360;2023-02-04T10:21:33;4.00;72.40
64987;DHT22;51532;52.108;9.360;2023-02-04T10:24:06;3.90;73.40
64987;DHT22;51532;52.108;9.360;2023-02-04T10:26:35;3.90;72.90
64987;DHT22;51532;52.108;9.360;2023-02-04T10:29:05;3.90;72.90
64987;DHT22;51532;52.108;9.360;2023-02-04T10:31:37;3.90;72.50
64987;DHT22;51532;52.108;9.360;2023-02-04T10:34:13;3.90;73.50
64987;DHT22;51532;52.108;9.360;2023-02-04T10:36:43;3.90;74.20
64987;DHT22;51532;52.108;9.360;2023-02-04T10:39:16;4.00;73.30
64987;DHT22;51532;52.108;9.360;2023-02-04T10:41:48;4.00;71.70
64987;DHT22;51532;52.108;9.360;2023-02-04T10:44:24;3.90;72.10
64987;DHT22;51532;52.108;9.360;2023-02-04T10:47:02;3.90;72.30
64987;DHT22;51532;52.108;9.360;2023-02-04T10:49:30;3.90;72.00
64987;DHT22;51532;52.108;9.360;2023-02-04T10:51:57;4.00;71.90
64987;DHT22;51532;52.108;9.360;2023-02-04T10:54:26;4.20;72.80
64987;DHT22;51532;52.108;9.360;2023-02-04T10:57:10;4.30;72.20
64987;DHT22;51532;52.108;9.360;2023-02-04T10:59:40;4.40;70.50
64987;DHT22;51532;52.108;9.360;2023-02-04T11:02:30;4.30;69.90
64987;DHT22;51532;52.108;9.360;2023-02-04T11:04:57;4.20;69.80
64987;DHT22;51532;52.108;9.360;2023-02-04T11:07:24;4.30;69.70
64987;DHT22;51532;52.108;9.360;2023-02-04T11:09:51;4.40;70.80
64987;DHT22;51532;52.108;9.360;2023-02-04T11:12:34;4.50;69.30
64987;DHT22;51532;52.108;9.360;2023-02-04T11:15:03;4.50;69.10
64987;DHT22;51532;52.108;9.360;2023-02-04T11:17:32;4.40;69.10
64987;DHT22;51532;52.108;9.360;2023-02-04T11:19:59;4.50;70.30
64987;DHT22;51532;52.108;9.360;2023-02-04T11:22:41;4.50;69.50
64987;DHT22;51532;52.108;9.360;2023-02-04T11:25:31;4.50;70.20
64987;DHT22;51532;52.108;9.360;2023-02-04T11:27:59;4.60;70.60
64987;DHT22;51532;52.108;9.360;2023-02-04T11:30:31;4.70;69.30
64987;DHT22;51532;52.108;9.360;2023-02-04T11:33:03;4.80;70.40
64987;DHT22;51532;52.108;9.360;2023-02-04T11:35:30;5.10;70.10
64987;DHT22;51532;52.108;9.360;2023-02-04T11:37:58;5.30;68.50
64987;DHT22;51532;52.108;9.360;2023-02-04T11:40:34;5.40;67.30
64987;DHT22;51532;52.108;9.360;2023-02-04T11:43:09;5.30;68.00
64987;DHT22;51532;52.108;9.360;2023-02-04T11:45:38;5.20;68.20
64987;DHT22;51532;52.108;9.360;2023-02-04T11:48:17;5.30;68.90
64987;DHT22;51532;52.108;9.360;2023-02-04T11:50:55;5.30;68.30
64987;DHT22;51532;52.108;9.360;2023-02-04T11:53:30;5.20;69.00
64987;DHT22;51532;52.108;9.360;2023-02-04T11:55:57;5.30;66.90
64987;DHT22;51532;52.108;9.360;2023-02-04T11:58:25;5.30;67.60
64987;DHT22;51532;52.108;9.360;2023-02-04T12:00:54;5.10;67.40
64987;DHT22;51532;52.108;9.360;2023-02-04T12:03:24;5.00;66.20
64987;DHT22;51532;52.108;9.360;2023-02-04T12:05:52;5.20;67.20
64987;DHT22;51532;52.108;9.360;2023-02-04T12:11:01;5.20;65.20
64987;DHT22;51532;52.108;9.360;2023-02-04T12:13:28;5.10;67.00
64987;DHT22;51532;52.108;9.360;2023-02-04T12:16:05;5.10;65.50
64987;DHT22;51532;52.108;9.360;2023-02-04T12:18:33;5.00;66.20
64987;DHT22;51532;52.108;9.360;2023-02-04T12:21:01;5.30;65.80
64987;DHT22;51532;52.108;9.360;2023-02-04T12:23:30;5.50;64.90
64987;DHT22;51532;52.108;9.360;2023-02-04T12:25:56;5.50;64.70
64987;DHT22;51532;52.108;9.360;2023-02-04T12:28:23;5.30;66.20
64987;DHT22;51532;52.108;9.360;2023-02-04T12:30:50;5.30;66.00
64987;DHT22;51532;52.108;9.360;2023-02-04T12:33:17;5.20;64.50
64987;DHT22;51532;52.108;9.360;2023-02-04T12:35:44;5.10;65.80
64987;DHT22;51532;52.108;9.360;2023-02-04T12:38:11;5.00;66.10
64987;DHT22;51532;52.108;9.360;2023-02-04T12:40:38;5.00;65.80
64987;DHT22;51532;52.108;9.360;2023-02-04T12:43:05;4.90;66.00
64987;DHT22;51532;52.108;9.360;2023-02-04T12:45:32;5.00;66.50
64987;DHT22;51532;52.108;9.360;2023-02-04T12:47:59;5.10;64.80
64987;DHT22;51532;52.108;9.360;2023-02-04T12:50:26;5.20;66.50
64987;DHT22;51532;52.108;9.360;2023-02-04T12:52:58;5.30;66.20
64987;DHT22;51532;52.108;9.360;2023-02-04T12:55:26;5.30;64.70
64987;DHT22;51532;52.108;9.360;2023-02-04T12:57:53;5.50;65.70
64987;DHT22;51532;52.108;9.360;2023-02-04T13:00:22;5.50;65.60
64987;DHT22;51532;52.108;9.360;2023-02-04T13:02:49;5.60;65.20
64987;DHT22;51532;52.108;9.360;2023-02-04T13:05:16;5.50;65.60
64987;DHT22;51532;52.108;9.360;2023-02-04T13:07:44;5.50;63.90
64987;DHT22;51532;52.108;9.360;2023-02-04T13:10:12;5.30;64.50
64987;DHT22;51532;52.108;9.360;2023-02-04T13:12:39;5.30;64.90
64987;DHT22;51532;52.108;9.360;2023-02-04T13:15:07;5.40;65.80
64987;DHT22;51532;52.108;9.360;2023-02-04T13:17:34;5.40;65.80
64987;DHT22;51532;52.108;9.360;2023-02-04T13:20:01;5.30;64.80
64987;DHT22;51532;52.108;9.360;2023-02-04T13:22:28;5.10;65.40
64987;DHT22;51532;52.108;9.360;2023-02-04T13:24:55;5.00;66.00
64987;DHT22;51532;52.108;9.360;2023-02-04T13:27:21;5.00;65.10
64987;DHT22;51532;52.108;9.360;2023-02-04T13:29:48;5.00;64.60
64987;DHT22;51532;52.108;9.360;2023-02-04T13:32:15;4.90;64.90
64987;DHT22;51532;52.108;9.360;2023-02-04T13:34:42;4.90;65.50
64987;DHT22;51532;52.108;9.360;2023-02-04T13:37:08;5.00;65.50
64987;DHT22;51532;52.108;9.360;2023-02-04T13:39:35;5.00;65.00
64987;DHT22;51532;52.108;9.360;2023-02-04T13:42:02;5.00;65.80
64987;DHT22;51532;52.108;9.360;2023-02-04T13:44:31;5.10;65.20
64987;DHT22;51532;52.108;9.360;2023-02-04T13:46:58;5.10;64.40
64987;DHT22;51532;52.108;9.360;2023-02-04T13:49:25;5.10;65.50
64987;DHT22;51532;52.108;9.360;2023-02-04T13:51:52;5.10;65.50
64987;DHT22;51532;52.108;9.360;2023-02-04T13:54:18;5.10;65.20
64987;DHT22;51532;52.108;9.360;2023-02-04T13:56:45;5.10;65.00
64987;DHT22;51532;52.108;9.360;2023-02-04T13:59:12;5.10;65.00
64987;DHT22;51532;52.108;9.360;2023-02-04T14:01:39;5.10;65.90
64987;DHT22;51532;52.108;9.360;2023-02-04T14:04:05;5.10;65.90
64987;DHT22;51532;52.108;9.360;2023-02-04T14:06:32;5.10;64.20
64987;DHT22;51532;52.108;9.360;2023-02-04T14:09:00;5.00;65.70
64987;DHT22;51532;52.108;9.360;2023-02-04T14:11:28;5.00;65.60
64987;DHT22;51532;52.108;9.360;2023-02-04T14:13:55;5.00;64.60
64987;DHT22;51532;52.108;9.360;2023-02-04T14:16:22;5.00;65.30
64987;DHT22;51532;52.108;9.360;2023-02-04T14:18:49;5.10;65.80
64987;DHT22;51532;52.108;9.360;2023-02-04T14:21:16;5.00;64.90
64987;DHT22;51532;52.108;9.360;2023-02-04T14:23:43;5.00;65.70
64987;DHT22;51532;52.108;9.360;2023-02-04T14:26:09;5.00;64.70
64987;DHT22;51532;52.108;9.360;2023-02-04T14:28:36;4.90;65.70
64987;DHT22;51532;52.108;9.360;2023-02-04T14:31:03;4.90;65.20
64987;DHT22;51532;52.108;9.360;2023-02-04T14:33:30;4.70;65.50
64987;DHT22;51532;52.108;9.360;2023-02-04T14:35:57;4.70;66.40
64987;DHT22;51532;52.108;9.360;2023-02-04T14:38:24;4.70;66.80
64987;DHT22;51532;52.108;9.360;2023-02-04T14:40:57;4.70;66.00
64987;DHT22;51532;52.108;9.360;2023-02-04T14:43:24;4.70;66.10
64987;DHT22;51532;52.108;9.360;2023-02-04T14:45:51;4.60;65.30
64987;DHT22;51532;52.108;9.360;2023-02-04T14:48:18;4.50;66.50
64987;DHT22;51532;52.108;9.360;2023-02-04T14:50:45;4.50;67.50
64987;DHT22;51532;52.108;9.360;2023-02-04T14:53:12;4.50;66.30
64987;DHT22;51532;52.108;9.360;2023-02-04T14:55:38;4.60;66.20
64987;DHT22;51532;52.108;9.360;2023-02-04T14:58:05;4.50;65.80
64987;DHT22;51532;52.108;9.360;2023-02-04T15:00:32;4.60;66.50
64987;DHT22;51532;52.108;9.360;2023-02-04T15:03:00;4.50;67.20
64987;DHT22;51532;52.108;9.360;2023-02-04T15:05:26;4.50;66.00
64987;DHT22;51532;52.108;9.360;2023-02-04T15:07:53;4.60;66.60
64987;DHT22;51532;52.108;9.360;2023-02-04T15:10:20;4.50;66.40
64987;DHT22;51532;52.108;9.360;2023-02-04T15:12:48;4.50;66.80
64987;DHT22;51532;52.108;9.360;2023-02-04T15:15:15;4.50;66.80
64987;DHT22;51532;52.108;9.360;2023-02-04T15:17:42;4.50;66.40
64987;DHT22;51532;52.108;9.360;2023-02-04T15:20:09;4.50;66.30
64987;DHT22;51532;52.108;9.360;2023-02-04T15:22:36;4.50;66.80
64987;DHT22;51532;52.108;9.360;2023-02-04T15:25:04;4.40;66.90
64987;DHT22;51532;52.108;9.360;2023-02-04T15:27:31;4.40;67.30
64987;DHT22;51532;52.108;9.360;2023-02-04T15:29:58;4.40;66.80
64987;DHT22;51532;52.108;9.360;2023-02-04T15:32:24;4.40;67.00
64987;DHT22;51532;52.108;9.360;2023-02-04T15:34:51;4.40;67.30
64987;DHT22;51532;52.108;9.360;2023-02-04T15:37:18;4.40;67.80
64987;DHT22;51532;52.108;9.360;2023-02-04T15:39:45;4.50;68.70
64987;DHT22;51532;52.108;9.360;2023-02-04T15:42:12;4.50;67.50
64987;DHT22;51532;52.108;9.360;2023-02-04T15:44:38;4.40;68.00
64987;DHT22;51532;52.108;9.360;2023-02-04T15:47:05;4.40;68.90
64987;DHT22;51532;52.108;9.360;2023-02-04T15:49:32;4.40;67.40
64987;DHT22;51532;52.108;9.360;2023-02-04T15:52:00;4.30;68.30